Time;durP1;ratioP1;P1;durP2;ratioP2;P2;SDS_P1;SDS_P2;PMS_P1;PMS_P2;Temp;Humidity;BMP_temperature;BMP_pressure;BME280_temperature;BME280_humidity;BME280_pressure;Samples;Min_cycle;Max_cycle;Signal;HPM_P1;HPM_P2
2022/01/15 00:02:11;;;;;;;;;;;;;;;;;;5051183;28;19929;-67
2022/01/15 00:04:38;;;;;;;;;;;;;;;;;;5049206;28;20405;-67
2022/01/15 00:07:05;;;;;;;;;;;;;;;;;;5049025;28;20301;-67
2022/01/15 00:09:32;;;;;;;;;;;;;;;;;;5051074;28;19929;-68
2022/01/15 00:11:59;;;;;;;;;;;;;;;;;;5049279;28;19932;-67
2022/01/15 00:14:31;;;;;;;;;;;;;;;;;;5051003;28;20404;-66
2022/01/15 00:17:05;;;;;;;;;;;;;;;;;;5051995;28;19933;-67
2022/01/15 00:19:41;;;;;;;;;;;;;;;;;;5049850;28;19931;-67
2022/01/15 00:22:08;;;;;;;;;;;;;;;;;;5052308;28;20531;-67
2022/01/15 00:24:35;;;;;;;;;;;;;;;;;;5049905;28;19925;-67
2022/01/15 00:27:02;;;;;;;;;;;;;;;;;;5048076;28;19936;-68
2022/01/15 00:29:30;;;;;;;;;;;;;;;;;;5047615;28;19929;-67
2022/01/15 00:31:57;;;;;;;;;;;;;;;;;;5050538;28;19925;-67
2022/01/15 00:34:24;;;;;;;;;;;;;;;;;;5044646;28;20011;-69
2022/01/15 00:36:51;;;;;;;;;;;;;;;;;;5049619;28;19934;-67
2022/01/15 00:39:17;;;;;;;;;;;;;;;;;;5047608;28;19932;-67
2022/01/15 00:41:44;;;;;;;;;;;;;;;;;;5049746;28;19932;-67
2022/01/15 00:44:11;;;;;;;;;;;;;;;;;;5052355;28;19943;-68
2022/01/15 00:46:38;;;;;;;;;;;;;;;;;;5047116;28;19932;-67
2022/01/15 00:49:05;;;;;;;;;;;;;;;;;;5057362;28;20410;-67
2022/01/15 00:51:32;;;;;;;;;;;;;;;;;;5055598;28;20385;-67
2022/01/15 00:53:59;;;;;;;;;;;;;;;;;;5053091;28;19924;-67
2022/01/15 00:56:26;;;;;;;;;;;;;;;;;;5053800;28;19924;-67
2022/01/15 00:58:55;;;;;;;;;;;;;;;;;;5052945;28;20094;-68
2022/01/15 01:01:22;;;;;;;;;;;;;;;;;;5052084;28;19932;-67
2022/01/15 01:03:49;;;;;;;;;;;;;;;;;;5053683;28;19932;-67
2022/01/15 01:06:16;;;;;;;;;;;;;;;;;;5059288;28;20548;-68
2022/01/15 01:08:43;;;;;;;;;;;;;;;;;;5049243;28;19932;-67
2022/01/15 01:11:13;;;;;;;;;;;;;;;;;;5060709;22;19924;-75
2022/01/15 01:22:51;;;;;;;;;;;;;;;;;;5046595;28;20424;-74
2022/01/15 01:25:05;;;;;;;;;;;;;;;;;;5049576;28;19968;-73
2022/01/15 01:27:43;;;;;;;;;;;;;;;;;;5051314;28;19952;-74
2022/01/15 01:30:15;;;;;;;;;;;;;;;;;;5045900;28;19924;-72
2022/01/15 01:32:49;;;;;;;;;;;;;;;;;;5050175;28;19929;-72
2022/01/15 01:35:29;;;;;;;;;;;;;;;;;;5048741;28;19956;-73
2022/01/15 01:37:59;;;;;;;;;;;;;;;;;;5046458;28;20065;-73
2022/01/15 01:40:37;;;;;;;;;;;;;;;;;;5048185;28;19925;-75
2022/01/15 01:43:09;;;;;;;;;;;;;;;;;;5050404;28;20467;-73
2022/01/15 01:45:36;;;;;;;;;;;;;;;;;;5046572;28;19932;-75
2022/01/15 01:48:03;;;;;;;;;;;;;;;;;;5047779;28;20015;-72
2022/01/15 01:50:30;;;;;;;;;;;;;;;;;;5051402;28;19925;-73
2022/01/15 01:52:57;;;;;;;;;;;;;;;;;;5047471;28;19932;-73
2022/01/15 01:55:24;;;;;;;;;;;;;;;;;;5043575;28;19925;-73
2022/01/15 01:57:51;;;;;;;;;;;;;;;;;;5042594;28;19929;-73
2022/01/15 02:00:19;;;;;;;;;;;;;;;;;;5045792;28;19933;-74
2022/01/15 02:02:46;;;;;;;;;;;;;;;;;;5047512;28;19925;-73
2022/01/15 02:05:13;;;;;;;;;;;;;;;;;;5045594;28;19925;-74
2022/01/15 02:07:40;;;;;;;;;;;;;;;;;;5050849;28;19983;-73
2022/01/15 02:10:08;;;;;;;;;;;;;;;;;;5046957;28;20198;-73
2022/01/15 02:12:35;;;;;;;;;;;;;;;;;;5048527;28;20385;-73
2022/01/15 02:15:02;;;;;;;;;;;;;;;;;;5051216;28;19928;-73
2022/01/15 02:17:29;;;;;;;;;;;;;;;;;;5047225;28;19925;-72
2022/01/15 02:20:23;;;;;;;;;;;;;;;;;;5049614;28;19932;-72
2022/01/15 02:25:34;;;;;;;;;;;;;;;;;;5045544;28;20401;-73
2022/01/15 02:28:01;;;;;;;;;;;;;;;;;;5049724;28;19925;-72
2022/01/15 02:30:28;;;;;;;;;;;;;;;;;;5046290;28;19932;-73
2022/01/15 02:32:55;;;;;;;;;;;;;;;;;;5046593;28;19925;-73
2022/01/15 02:35:22;;;;;;;;;;;;;;;;;;5045747;28;20385;-73
2022/01/15 02:37:49;;;;;;;;;;;;;;;;;;5049375;28;19932;-73
2022/01/15 02:40:16;;;;;;;;;;;;;;;;;;5048215;28;19928;-72
2022/01/15 02:42:43;;;;;;;;;;;;;;;;;;5048785;28;20049;-73
2022/01/15 02:45:11;;;;;;;;;;;;;;;;;;5050942;28;19944;-73
2022/01/15 02:50:23;;;;;;;;;;;;;;;;;;5043223;28;19935;-73
2022/01/15 02:52:50;;;;;;;;;;;;;;;;;;5041699;28;19924;-73
2022/01/15 02:55:17;;;;;;;;;;;;;;;;;;5050424;28;19932;-73
2022/01/15 02:57:44;;;;;;;;;;;;;;;;;;5045447;28;19932;-73
2022/01/15 03:00:11;;;;;;;;;;;;;;;;;;5042366;28;20299;-73
2022/01/15 03:02:37;;;;;;;;;;;;;;;;;;5051418;28;19924;-72
2022/01/15 03:05:04;;;;;;;;;;;;;;;;;;5049024;28;19932;-72
2022/01/15 03:07:31;;;;;;;;;;;;;;;;;;5047818;28;19932;-72
2022/01/15 03:09:58;;;;;;;;;;;;;;;;;;5038632;28;20378;-72
2022/01/15 03:12:25;;;;;;;;;;;;;;;;;;5050168;28;20458;-72
2022/01/15 03:14:55;;;;;;;;;;;;;;;;;;5047212;28;19933;-72
2022/01/15 03:17:22;;;;;;;;;;;;;;;;;;5039431;28;20019;-73
2022/01/15 03:19:49;;;;;;;;;;;;;;;;;;5043958;28;19929;-72
2022/01/15 03:22:16;;;;;;;;;;;;;;;;;;5043448;28;20294;-72
2022/01/15 03:24:43;;;;;;;;;;;;;;;;;;5048788;28;19925;-72
2022/01/15 03:27:10;;;;;;;;;;;;;;;;;;5049224;28;19929;-73
2022/01/15 03:29:37;;;;;;;;;;;;;;;;;;5042589;28;20290;-73
2022/01/15 03:32:04;;;;;;;;;;;;;;;;;;5046750;28;19924;-73
2022/01/15 03:34:31;;;;;;;;;;;;;;;;;;5047874;28;19925;-72
2022/01/15 03:36:58;;;;;;;;;;;;;;;;;;5043480;28;19932;-72
2022/01/15 03:39:25;;;;;;;;;;;;;;;;;;5049144;28;19925;-74
2022/01/15 03:41:52;;;;;;;;;;;;;;;;;;5048436;28;19924;-72
2022/01/15 03:44:19;;;;;;;;;;;;;;;;;;5044930;28;19932;-72
2022/01/15 03:46:45;;;;;;;;;;;;;;;;;;5046328;28;19925;-72
2022/01/15 03:49:14;;;;;;;;;;;;;;;;;;5042531;28;21421;-72
2022/01/15 03:51:41;;;;;;;;;;;;;;;;;;5045093;28;19925;-72
2022/01/15 03:54:08;;;;;;;;;;;;;;;;;;5049527;28;19925;-72
2022/01/15 03:56:35;;;;;;;;;;;;;;;;;;5042903;28;19936;-71
2022/01/15 03:59:02;;;;;;;;;;;;;;;;;;5041245;28;20271;-71
2022/01/15 04:01:29;;;;;;;;;;;;;;;;;;5042071;28;19925;-72
2022/01/15 04:03:56;;;;;;;;;;;;;;;;;;5047050;28;19925;-72
2022/01/15 04:06:23;;;;;;;;;;;;;;;;;;5047097;28;19929;-72
2022/01/15 04:08:50;;;;;;;;;;;;;;;;;;5047926;28;19925;-73
2022/01/15 04:11:17;;;;;;;;;;;;;;;;;;5046161;28;19925;-72
2022/01/15 04:13:44;;;;;;;;;;;;;;;;;;5046690;28;19931;-72
2022/01/15 04:16:11;;;;;;;;;;;;;;;;;;5048301;28;19925;-72
2022/01/15 04:18:40;;;;;;;;;;;;;;;;;;5047104;28;19932;-72
2022/01/15 04:21:09;;;;;;;;;;;;;;;;;;5039786;28;20438;-72
2022/01/15 04:23:36;;;;;;;;;;;;;;;;;;5048102;28;20128;-73
2022/01/15 04:26:03;;;;;;;;;;;;;;;;;;5045151;28;19935;-72
2022/01/15 04:28:32;;;;;;;;;;;;;;;;;;5047685;28;19925;-72
2022/01/15 04:31:04;;;;;;;;;;;;;;;;;;5044328;28;20306;-73
2022/01/15 04:33:31;;;;;;;;;;;;;;;;;;5043907;28;20416;-72
2022/01/15 04:35:58;;;;;;;;;;;;;;;;;;5043085;28;19925;-73
2022/01/15 04:38:25;;;;;;;;;;;;;;;;;;5040137;28;19925;-74
2022/01/15 04:40:52;;;;;;;;;;;;;;;;;;5048547;28;20342;-73
2022/01/15 04:43:19;;;;;;;;;;;;;;;;;;5046993;28;20371;-72
2022/01/15 04:45:46;;;;;;;;;;;;;;;;;;5047747;28;19925;-73
2022/01/15 04:48:13;;;;;;;;;;;;;;;;;;5042091;28;20294;-72
2022/01/15 04:50:40;;;;;;;;;;;;;;;;;;5041841;28;20290;-72
2022/01/15 04:53:08;;;;;;;;;;;;;;;;;;5043963;28;19947;-72
2022/01/15 04:55:35;;;;;;;;;;;;;;;;;;5045998;28;19929;-72
2022/01/15 04:58:02;;;;;;;;;;;;;;;;;;5041135;28;19925;-72
2022/01/15 05:00:29;;;;;;;;;;;;;;;;;;5048654;28;20027;-73
2022/01/15 05:02:57;;;;;;;;;;;;;;;;;;5041526;28;19925;-73
2022/01/15 05:05:23;;;;;;;;;;;;;;;;;;5047214;28;20375;-73
2022/01/15 05:07:51;;;;;;;;;;;;;;;;;;5044516;28;20402;-72
2022/01/15 05:10:20;;;;;;;;;;;;;;;;;;5045347;28;19932;-70
2022/01/15 05:12:49;;;;;;;;;;;;;;;;;;5042979;28;19961;-72
2022/01/15 05:15:16;;;;;;;;;;;;;;;;;;5045839;28;19935;-72
2022/01/15 05:17:43;;;;;;;;;;;;;;;;;;5038921;28;20090;-74
2022/01/15 05:20:10;;;;;;;;;;;;;;;;;;5038353;28;20286;-72
2022/01/15 05:22:37;;;;;;;;;;;;;;;;;;5044872;28;20659;-72
2022/01/15 05:25:03;;;;;;;;;;;;;;;;;;5043686;28;20420;-73
2022/01/15 05:27:30;;;;;;;;;;;;;;;;;;5043487;28;20260;-72
2022/01/15 05:29:57;;;;;;;;;;;;;;;;;;5046543;28;20315;-72
2022/01/15 05:32:24;;;;;;;;;;;;;;;;;;5044665;28;19948;-72
2022/01/15 05:34:51;;;;;;;;;;;;;;;;;;5049921;28;20286;-73
2022/01/15 05:37:18;;;;;;;;;;;;;;;;;;5049611;28;19925;-72
2022/01/15 05:39:45;;;;;;;;;;;;;;;;;;5050321;28;20401;-72
2022/01/15 05:42:12;;;;;;;;;;;;;;;;;;5049225;28;20402;-73
2022/01/15 05:44:39;;;;;;;;;;;;;;;;;;5050563;28;20287;-73
2022/01/15 05:47:06;;;;;;;;;;;;;;;;;;5047178;28;19929;-73
2022/01/15 05:49:33;;;;;;;;;;;;;;;;;;5049591;28;19933;-73
2022/01/15 05:52:00;;;;;;;;;;;;;;;;;;5045162;28;19925;-74
2022/01/15 05:54:27;;;;;;;;;;;;;;;;;;5045882;28;19933;-73
2022/01/15 05:56:54;;;;;;;;;;;;;;;;;;5043006;28;19936;-73
2022/01/15 05:59:21;;;;;;;;;;;;;;;;;;5050023;28;19924;-73
2022/01/15 06:01:48;;;;;;;;;;;;;;;;;;5047351;28;19925;-75
2022/01/15 06:04:16;;;;;;;;;;;;;;;;;;5045099;28;20402;-73
2022/01/15 06:06:43;;;;;;;;;;;;;;;;;;5051159;28;19929;-74
2022/01/15 06:09:09;;;;;;;;;;;;;;;;;;5046828;28;19933;-72
2022/01/15 06:11:39;;;;;;;;;;;;;;;;;;5046595;28;19925;-73
2022/01/15 06:14:06;;;;;;;;;;;;;;;;;;5049760;28;19929;-73
2022/01/15 06:16:33;;;;;;;;;;;;;;;;;;5049434;28;19929;-72
2022/01/15 06:19:00;;;;;;;;;;;;;;;;;;5044833;28;19925;-75
2022/01/15 06:21:27;;;;;;;;;;;;;;;;;;5044677;28;19925;-72
2022/01/15 06:23:53;;;;;;;;;;;;;;;;;;5051304;28;19929;-72
2022/01/15 06:26:20;;;;;;;;;;;;;;;;;;5046202;28;20254;-73
2022/01/15 06:28:47;;;;;;;;;;;;;;;;;;5044431;28;19928;-74
2022/01/15 06:31:15;;;;;;;;;;;;;;;;;;5043292;28;20413;-68
2022/01/15 06:33:42;;;;;;;;;;;;;;;;;;5041299;28;19971;-73
2022/01/15 06:36:09;;;;;;;;;;;;;;;;;;5048354;28;19937;-74
2022/01/15 06:38:36;;;;;;;;;;;;;;;;;;5043929;28;19925;-72
2022/01/15 06:41:03;;;;;;;;;;;;;;;;;;5048117;28;19929;-73
2022/01/15 06:43:30;;;;;;;;;;;;;;;;;;5049673;28;20275;-76
2022/01/15 06:45:56;;;;;;;;;;;;;;;;;;5049272;28;19933;-73
2022/01/15 06:48:24;;;;;;;;;;;;;;;;;;5042590;28;20322;-73
2022/01/15 06:50:51;;;;;;;;;;;;;;;;;;5046061;28;19932;-74
2022/01/15 06:53:18;;;;;;;;;;;;;;;;;;5044925;28;19948;-69
2022/01/15 06:55:49;;;;;;;;;;;;;;;;;;5047625;28;19924;-70
2022/01/15 06:58:15;;;;;;;;;;;;;;;;;;5043765;28;19925;-68
2022/01/15 07:00:42;;;;;;;;;;;;;;;;;;5046168;28;20299;-68
2022/01/15 07:03:09;;;;;;;;;;;;;;;;;;5044139;28;19932;-70
2022/01/15 07:05:36;;;;;;;;;;;;;;;;;;5045826;28;19935;-70
2022/01/15 07:08:03;;;;;;;;;;;;;;;;;;5046688;28;19929;-70
2022/01/15 07:13:15;;;;;;;;;;;;;;;;;;5060718;28;19925;-67
2022/01/15 07:15:42;;;;;;;;;;;;;;;;;;5063397;28;20390;-68
2022/01/15 07:18:08;;;;;;;;;;;;;;;;;;5063918;28;19932;-68
2022/01/15 07:20:35;;;;;;;;;;;;;;;;;;5069973;28;19925;-67
2022/01/15 07:23:02;;;;;;;;;;;;;;;;;;5070465;28;19932;-68
2022/01/15 07:25:29;;;;;;;;;;;;;;;;;;5068467;28;19924;-68
2022/01/15 07:27:56;;;;;;;;;;;;;;;;;;5063000;28;19929;-68
2022/01/15 07:30:24;;;;;;;;;;;;;;;;;;5067080;28;19931;-69
2022/01/15 07:32:51;;;;;;;;;;;;;;;;;;5068805;28;19932;-68
2022/01/15 07:35:18;;;;;;;;;;;;;;;;;;5064584;28;19928;-68
2022/01/15 07:37:45;;;;;;;;;;;;;;;;;;5064516;28;20416;-68
2022/01/15 07:40:12;;;;;;;;;;;;;;;;;;5060995;28;19925;-67
2022/01/15 07:42:40;;;;;;;;;;;;;;;;;;5065975;28;19928;-68
2022/01/15 07:45:07;;;;;;;;;;;;;;;;;;5058453;28;19931;-68
2022/01/15 07:47:34;;;;;;;;;;;;;;;;;;5061292;28;20301;-68
2022/01/15 07:50:01;;;;;;;;;;;;;;;;;;5065314;28;19929;-68
2022/01/15 07:52:28;;;;;;;;;;;;;;;;;;5066490;28;20298;-68
2022/01/15 07:54:58;;;;;;;;;;;;;;;;;;5065526;28;19924;-67
2022/01/15 07:57:24;;;;;;;;;;;;;;;;;;5056823;28;19924;-69
2022/01/15 07:59:51;;;;;;;;;;;;;;;;;;5063501;28;20378;-68
2022/01/15 08:02:18;;;;;;;;;;;;;;;;;;5066214;28;20362;-69
2022/01/15 08:04:45;;;;;;;;;;;;;;;;;;5068060;28;20359;-69
2022/01/15 08:07:12;;;;;;;;;;;;;;;;;;5061793;28;20287;-68
2022/01/15 08:09:39;;;;;;;;;;;;;;;;;;5065951;28;19924;-68
2022/01/15 08:12:06;;;;;;;;;;;;;;;;;;5064436;28;19929;-68
2022/01/15 08:14:33;;;;;;;;;;;;;;;;;;5065431;28;19929;-69
2022/01/15 08:17:00;;;;;;;;;;;;;;;;;;5059908;28;19928;-68
2022/01/15 08:19:27;;;;;;;;;;;;;;;;;;5067176;28;19935;-68
2022/01/15 08:21:54;;;;;;;;;;;;;;;;;;5066504;28;20397;-68
2022/01/15 08:24:21;;;;;;;;;;;;;;;;;;5070173;28;19924;-68
2022/01/15 08:26:48;;;;;;;;;;;;;;;;;;5059516;28;19933;-68
2022/01/15 08:29:14;;;;;;;;;;;;;;;;;;5059442;28;20380;-68
2022/01/15 08:31:41;;;;;;;;;;;;;;;;;;5062883;28;19932;-70
2022/01/15 08:34:08;;;;;;;;;;;;;;;;;;5059598;28;19924;-70
2022/01/15 08:36:36;;;;;;;;;;;;;;;;;;5058247;28;19924;-69
2022/01/15 08:39:03;;;;;;;;;;;;;;;;;;5067460;28;20191;-68
2022/01/15 08:41:30;;;;;;;;;;;;;;;;;;5064793;28;20305;-70
2022/01/15 08:43:57;;;;;;;;;;;;;;;;;;5066961;28;19924;-68
2022/01/15 08:46:24;;;;;;;;;;;;;;;;;;5060285;28;20409;-69
2022/01/15 08:48:51;;;;;;;;;;;;;;;;;;5064335;28;19931;-68
2022/01/15 08:51:18;;;;;;;;;;;;;;;;;;5065208;28;19970;-69
2022/01/15 08:53:45;;;;;;;;;;;;;;;;;;5068568;28;20175;-68
2022/01/15 08:56:12;;;;;;;;;;;;;;;;;;5064789;28;19931;-68
2022/01/15 08:58:39;;;;;;;;;;;;;;;;;;5058250;28;19932;-67
2022/01/15 09:01:13;;;;;;;;;;;;;;;;;;5064442;28;20289;-69
2022/01/15 09:03:40;;;;;;;;;;;;;;;;;;5063850;28;19929;-68
2022/01/15 09:06:07;;;;;;;;;;;;;;;;;;5067229;28;19928;-70
2022/01/15 09:08:34;;;;;;;;;;;;;;;;;;5068487;28;19924;-68
2022/01/15 09:11:01;;;;;;;;;;;;;;;;;;5065300;28;19943;-68
2022/01/15 09:13:29;;;;;;;;;;;;;;;;;;5068158;28;19932;-68
2022/01/15 09:15:57;;;;;;;;;;;;;;;;;;5068821;28;19924;-68
2022/01/15 09:18:24;;;;;;;;;;;;;;;;;;5070158;28;19924;-69
2022/01/15 09:20:51;;;;;;;;;;;;;;;;;;5067070;28;19931;-68
2022/01/15 09:23:18;;;;;;;;;;;;;;;;;;5066147;28;20391;-68
2022/01/15 09:25:45;;;;;;;;;;;;;;;;;;5064338;28;19964;-68
2022/01/15 09:30:57;;;;;;;;;;;;;;;;;;5063454;28;20046;-68
2022/01/15 09:33:23;;;;;;;;;;;;;;;;;;5065096;28;20485;-68
2022/01/15 09:35:50;;;;;;;;;;;;;;;;;;5061985;28;19924;-68
2022/01/15 09:38:17;;;;;;;;;;;;;;;;;;5063005;28;19928;-70
2022/01/15 09:40:44;;;;;;;;;;;;;;;;;;5068938;28;19936;-69
2022/01/15 09:43:12;;;;;;;;;;;;;;;;;;5063761;28;20302;-68
2022/01/15 09:45:39;;;;;;;;;;;;;;;;;;5059923;28;19924;-70
2022/01/15 09:48:06;;;;;;;;;;;;;;;;;;5067686;28;20282;-69
2022/01/15 09:50:33;;;;;;;;;;;;;;;;;;5064419;28;19932;-68
2022/01/15 09:53:00;;;;;;;;;;;;;;;;;;5067108;28;19932;-69
2022/01/15 09:55:27;;;;;;;;;;;;;;;;;;5063791;28;19928;-69
2022/01/15 09:57:54;;;;;;;;;;;;;;;;;;5062773;28;19931;-68
2022/01/15 10:00:21;;;;;;;;;;;;;;;;;;5064886;28;19934;-70
2022/01/15 10:02:47;;;;;;;;;;;;;;;;;;5068803;28;20011;-70
2022/01/15 10:05:14;;;;;;;;;;;;;;;;;;5069903;28;19924;-69
2022/01/15 10:07:41;;;;;;;;;;;;;;;;;;5068512;28;20301;-68
2022/01/15 10:10:08;;;;;;;;;;;;;;;;;;5067251;28;19931;-69
2022/01/15 10:12:36;;;;;;;;;;;;;;;;;;5065163;28;20289;-69
2022/01/15 10:15:03;;;;;;;;;;;;;;;;;;5068227;28;19925;-69
2022/01/15 10:17:32;;;;;;;;;;;;;;;;;;5070841;28;20307;-68
2022/01/15 10:19:59;;;;;;;;;;;;;;;;;;5061084;28;20168;-68
2022/01/15 10:22:26;;;;;;;;;;;;;;;;;;5060303;28;19932;-69
2022/01/15 10:24:53;;;;;;;;;;;;;;;;;;5061550;28;19924;-68
2022/01/15 10:27:20;;;;;;;;;;;;;;;;;;5060849;28;20016;-69
2022/01/15 10:29:47;;;;;;;;;;;;;;;;;;5059567;28;19932;-67
2022/01/15 10:32:14;;;;;;;;;;;;;;;;;;5072896;28;19924;-66
2022/01/15 10:34:41;;;;;;;;;;;;;;;;;;5070197;28;20005;-68
2022/01/15 10:37:08;;;;;;;;;;;;;;;;;;5071171;28;19924;-67
2022/01/15 10:39:35;;;;;;;;;;;;;;;;;;5069664;28;20003;-66
2022/01/15 10:42:02;;;;;;;;;;;;;;;;;;5066606;28;19931;-68
2022/01/15 10:44:29;;;;;;;;;;;;;;;;;;5067894;28;19925;-67
2022/01/15 10:46:56;;;;;;;;;;;;;;;;;;5065917;28;20370;-67
2022/01/15 10:49:23;;;;;;;;;;;;;;;;;;5073830;28;19943;-67
2022/01/15 10:51:50;;;;;;;;;;;;;;;;;;5065383;28;19971;-67
2022/01/15 10:54:16;;;;;;;;;;;;;;;;;;5068785;28;19931;-67
2022/01/15 10:56:43;;;;;;;;;;;;;;;;;;5063999;28;20271;-68
2022/01/15 10:59:12;;;;;;;;;;;;;;;;;;5060708;28;20097;-69
2022/01/15 11:01:39;;;;;;;;;;;;;;;;;;5060747;28;19960;-68
2022/01/15 11:04:06;;;;;;;;;;;;;;;;;;5059881;28;19924;-69
2022/01/15 11:06:33;;;;;;;;;;;;;;;;;;5062432;28;19924;-69
2022/01/15 11:08:59;;;;;;;;;;;;;;;;;;5063791;28;19947;-71
2022/01/15 11:11:32;;;;;;;;;;;;;;;;;;5068837;28;19924;-70
2022/01/15 11:13:59;;;;;;;;;;;;;;;;;;5063905;28;20011;-68
2022/01/15 11:16:26;;;;;;;;;;;;;;;;;;5066783;28;19932;-69
2022/01/15 11:18:54;;;;;;;;;;;;;;;;;;5066179;28;19924;-68
2022/01/15 11:21:21;;;;;;;;;;;;;;;;;;5065083;28;21143;-66
2022/01/15 11:23:48;;;;;;;;;;;;;;;;;;5064527;28;19929;-67
2022/01/15 11:26:15;;;;;;;;;;;;;;;;;;5057537;28;20012;-68
2022/01/15 11:28:42;;;;;;;;;;;;;;;;;;5064447;28;19932;-67
2022/01/15 11:31:09;;;;;;;;;;;;;;;;;;5061270;28;19971;-68
2022/01/15 11:33:36;;;;;;;;;;;;;;;;;;5067130;28;19924;-68
2022/01/15 11:36:03;;;;;;;;;;;;;;;;;;5072677;28;19925;-68
2022/01/15 11:38:30;;;;;;;;;;;;;;;;;;5062322;28;19932;-67
2022/01/15 11:40:57;;;;;;;;;;;;;;;;;;5065817;28;20249;-67
2022/01/15 11:43:24;;;;;;;;;;;;;;;;;;5062399;28;19925;-68
2022/01/15 11:45:51;;;;;;;;;;;;;;;;;;5060407;28;19928;-67
2022/01/15 11:48:18;;;;;;;;;;;;;;;;;;5059907;28;20381;-69
2022/01/15 11:50:45;;;;;;;;;;;;;;;;;;5060946;28;19925;-68
2022/01/15 11:53:12;;;;;;;;;;;;;;;;;;5062539;28;19924;-67
2022/01/15 11:55:42;;;;;;;;;;;;;;;;;;5068231;28;19925;-70
2022/01/15 11:58:09;;;;;;;;;;;;;;;;;;5061296;28;19925;-67
2022/01/15 12:00:36;;;;;;;;;;;;;;;;;;5063634;28;20301;-67
2022/01/15 12:03:03;;;;;;;;;;;;;;;;;;5061588;28;19931;-69
2022/01/15 12:05:30;;;;;;;;;;;;;;;;;;5060741;28;19929;-67
2022/01/15 12:07:57;;;;;;;;;;;;;;;;;;5062573;28;19950;-67
2022/01/15 12:10:24;;;;;;;;;;;;;;;;;;5060934;28;19932;-68
2022/01/15 12:12:51;;;;;;;;;;;;;;;;;;5061181;28;19939;-67
2022/01/15 12:15:24;;;;;;;;;;;;;;;;;;5061281;28;19924;-68
2022/01/15 12:17:51;;;;;;;;;;;;;;;;;;5063185;28;19970;-67
2022/01/15 12:20:18;;;;;;;;;;;;;;;;;;5061869;28;19925;-68
2022/01/15 12:22:45;;;;;;;;;;;;;;;;;;5059552;28;19931;-68
2022/01/15 12:25:12;;;;;;;;;;;;;;;;;;5063875;28;19933;-68
2022/01/15 12:27:39;;;;;;;;;;;;;;;;;;5061823;28;19940;-67
2022/01/15 12:30:06;;;;;;;;;;;;;;;;;;5063141;28;19932;-68
2022/01/15 12:32:33;;;;;;;;;;;;;;;;;;5058869;28;19936;-67
2022/01/15 12:35:00;;;;;;;;;;;;;;;;;;5062920;28;19924;-67
2022/01/15 12:37:27;;;;;;;;;;;;;;;;;;5056803;28;20401;-69
2022/01/15 12:39:56;;;;;;;;;;;;;;;;;;5062364;28;20007;-68
2022/01/15 12:42:27;;;;;;;;;;;;;;;;;;5067814;28;19928;-67
2022/01/15 12:44:54;;;;;;;;;;;;;;;;;;5065445;28;19947;-67
2022/01/15 12:47:21;;;;;;;;;;;;;;;;;;5066664;28;19971;-67
2022/01/15 12:49:48;;;;;;;;;;;;;;;;;;5071188;28;20019;-66
2022/01/15 12:52:15;;;;;;;;;;;;;;;;;;5065078;28;19932;-68
2022/01/15 12:54:42;;;;;;;;;;;;;;;;;;5071502;28;20100;-68
2022/01/15 12:57:09;;;;;;;;;;;;;;;;;;5064628;28;19925;-68
2022/01/15 12:59:38;;;;;;;;;;;;;;;;;;5062800;28;21379;-67
2022/01/15 13:02:05;;;;;;;;;;;;;;;;;;5060546;28;20433;-67
2022/01/15 13:04:32;;;;;;;;;;;;;;;;;;5060280;28;19947;-68
2022/01/15 13:06:59;;;;;;;;;;;;;;;;;;5062224;28;19925;-69
2022/01/15 13:09:26;;;;;;;;;;;;;;;;;;5061168;28;19960;-68
2022/01/15 13:11:53;;;;;;;;;;;;;;;;;;5320557;22;19928;-81
2022/01/15 13:14:21;;;;;;;;;;;;;;;;;;5048846;28;19971;-80
2022/01/15 13:16:48;;;;;;;;;;;;;;;;;;5054932;28;19924;-80
2022/01/15 13:19:15;;;;;;;;;;;;;;;;;;5054796;28;19925;-80
2022/01/15 13:21:42;;;;;;;;;;;;;;;;;;5056840;28;19929;-82
2022/01/15 13:24:11;;;;;;;;;;;;;;;;;;5055078;28;20409;-82
2022/01/15 13:26:38;;;;;;;;;;;;;;;;;;5051581;28;19943;-83
2022/01/15 13:29:05;;;;;;;;;;;;;;;;;;5056883;28;19924;-80
2022/01/15 13:31:31;;;;;;;;;;;;;;;;;;5060073;28;20031;-79
2022/01/15 13:33:58;;;;;;;;;;;;;;;;;;5051823;28;19925;-82
2022/01/15 13:36:25;;;;;;;;;;;;;;;;;;5060434;28;21335;-80
2022/01/15 13:38:52;;;;;;;;;;;;;;;;;;5052515;28;19932;-83
2022/01/15 13:41:19;;;;;;;;;;;;;;;;;;5054473;28;19924;-82
2022/01/15 13:43:46;;;;;;;;;;;;;;;;;;5059218;28;19932;-83
2022/01/15 13:46:13;;;;;;;;;;;;;;;;;;5058261;28;20362;-85
2022/01/15 13:48:40;;;;;;;;;;;;;;;;;;5058866;28;20409;-81
2022/01/15 13:53:57;;;;;;;;;;;;;;;;;;5054796;28;19923;-82
2022/01/15 13:56:24;;;;;;;;;;;;;;;;;;5060858;28;20394;-81
2022/01/15 13:58:51;;;;;;;;;;;;;;;;;;5054879;28;19928;-81
2022/01/15 14:01:18;;;;;;;;;;;;;;;;;;5060328;28;19924;-82
2022/01/15 14:03:45;;;;;;;;;;;;;;;;;;5058747;28;19951;-80
2022/01/15 14:06:12;;;;;;;;;;;;;;;;;;5055668;28;19951;-82
2022/01/15 14:08:38;;;;;;;;;;;;;;;;;;5052924;28;19925;-81
2022/01/15 14:11:05;;;;;;;;;;;;;;;;;;5056747;28;19992;-82
2022/01/15 14:13:32;;;;;;;;;;;;;;;;;;5056888;28;20031;-81
2022/01/15 14:15:59;;;;;;;;;;;;;;;;;;5056507;28;19978;-81
2022/01/15 14:18:30;;;;;;;;;;;;;;;;;;5057421;28;19925;-82
2022/01/15 14:21:17;;;;;;;;;;;;;;;;;;5057002;28;19924;-82
2022/01/15 14:23:44;;;;;;;;;;;;;;;;;;5046348;28;19955;-83
2022/01/15 14:26:11;;;;;;;;;;;;;;;;;;5052436;28;19935;-81
2022/01/15 14:28:38;;;;;;;;;;;;;;;;;;5054577;28;20309;-83
2022/01/15 14:31:05;;;;;;;;;;;;;;;;;;5055270;28;19931;-84
2022/01/15 14:33:32;;;;;;;;;;;;;;;;;;5049403;28;19929;-81
2022/01/15 14:35:59;;;;;;;;;;;;;;;;;;5052101;28;20416;-83
2022/01/15 14:38:26;;;;;;;;;;;;;;;;;;5051355;28;19992;-81
2022/01/15 14:40:53;;;;;;;;;;;;;;;;;;5045277;28;19924;-83
2022/01/15 14:43:21;;;;;;;;;;;;;;;;;;5045489;28;20590;-84
2022/01/15 14:45:48;;;;;;;;;;;;;;;;;;5054072;28;19955;-82
2022/01/15 14:48:15;;;;;;;;;;;;;;;;;;5050697;28;19932;-85
2022/01/15 14:50:43;;;;;;;;;;;;;;;;;;5052763;28;19933;-82
2022/01/15 14:53:10;;;;;;;;;;;;;;;;;;5053408;28;19970;-82
2022/01/15 14:55:37;;;;;;;;;;;;;;;;;;5049893;28;19925;-83
2022/01/15 14:58:04;;;;;;;;;;;;;;;;;;5053818;28;20405;-82
2022/01/15 15:00:32;;;;;;;;;;;;;;;;;;5050694;28;19939;-80
2022/01/15 15:02:59;;;;;;;;;;;;;;;;;;5050252;28;19925;-81
2022/01/15 15:05:26;;;;;;;;;;;;;;;;;;5054310;28;20040;-81
2022/01/15 15:07:53;;;;;;;;;;;;;;;;;;5054763;28;19960;-82
2022/01/15 15:10:20;;;;;;;;;;;;;;;;;;5054027;28;19931;-81
2022/01/15 15:12:53;;;;;;;;;;;;;;;;;;5050241;28;19929;-80
2022/01/15 15:15:20;;;;;;;;;;;;;;;;;;5052811;28;19989;-82
2022/01/15 15:17:47;;;;;;;;;;;;;;;;;;5052265;28;20011;-81
2022/01/15 15:20:16;;;;;;;;;;;;;;;;;;5044243;28;20131;-80
2022/01/15 15:22:43;;;;;;;;;;;;;;;;;;5046013;28;19925;-83
2022/01/15 15:25:10;;;;;;;;;;;;;;;;;;5044169;28;19925;-81
2022/01/15 15:27:37;;;;;;;;;;;;;;;;;;5051656;28;20306;-82
2022/01/15 15:30:06;;;;;;;;;;;;;;;;;;5041808;28;19931;-81
2022/01/15 15:32:33;;;;;;;;;;;;;;;;;;5041726;28;19940;-81
2022/01/15 15:35:00;;;;;;;;;;;;;;;;;;5042600;28;20390;-79
2022/01/15 15:37:28;;;;;;;;;;;;;;;;;;5040703;28;20043;-83
2022/01/15 15:39:55;;;;;;;;;;;;;;;;;;5041640;28;20617;-81
2022/01/15 15:42:22;;;;;;;;;;;;;;;;;;5043903;28;19937;-82
2022/01/15 15:44:49;;;;;;;;;;;;;;;;;;5043296;28;20381;-84
2022/01/15 15:47:16;;;;;;;;;;;;;;;;;;5041806;28;19924;-81
2022/01/15 15:49:43;;;;;;;;;;;;;;;;;;5045670;28;19925;-80
2022/01/15 15:52:10;;;;;;;;;;;;;;;;;;5041136;28;20317;-80
2022/01/15 15:54:37;;;;;;;;;;;;;;;;;;5049136;28;19925;-83
2022/01/15 15:57:09;;;;;;;;;;;;;;;;;;5044122;28;19955;-82
2022/01/15 15:59:36;;;;;;;;;;;;;;;;;;5040212;28;20275;-82
2022/01/15 16:02:03;;;;;;;;;;;;;;;;;;5038627;28;19936;-81
2022/01/15 16:04:30;;;;;;;;;;;;;;;;;;5041520;28;19925;-79
2022/01/15 16:06:57;;;;;;;;;;;;;;;;;;5038889;28;20422;-80
2022/01/15 16:09:24;;;;;;;;;;;;;;;;;;5043339;28;19994;-80
2022/01/15 16:11:51;;;;;;;;;;;;;;;;;;5042475;28;19939;-81
2022/01/15 16:14:20;;;;;;;;;;;;;;;;;;5044111;28;19987;-81
2022/01/15 16:16:47;;;;;;;;;;;;;;;;;;5047068;28;19955;-82
2022/01/15 16:19:14;;;;;;;;;;;;;;;;;;5041311;28;20355;-81
2022/01/15 16:21:41;;;;;;;;;;;;;;;;;;5043018;28;19931;-81
2022/01/15 16:24:08;;;;;;;;;;;;;;;;;;5042998;28;19942;-81
2022/01/15 16:26:35;;;;;;;;;;;;;;;;;;5041676;28;19979;-80
2022/01/15 16:29:02;;;;;;;;;;;;;;;;;;5041140;28;19964;-80
2022/01/15 16:31:29;;;;;;;;;;;;;;;;;;5039739;28;19925;-81
2022/01/15 16:33:56;;;;;;;;;;;;;;;;;;5039185;28;19925;-80
2022/01/15 16:36:23;;;;;;;;;;;;;;;;;;5043012;28;20306;-80
2022/01/15 16:38:50;;;;;;;;;;;;;;;;;;5045246;28;19932;-81
2022/01/15 16:41:17;;;;;;;;;;;;;;;;;;5039716;28;20194;-80
2022/01/15 16:43:44;;;;;;;;;;;;;;;;;;5045841;28;19963;-80
2022/01/15 16:46:11;;;;;;;;;;;;;;;;;;5045322;28;20023;-80
2022/01/15 16:48:38;;;;;;;;;;;;;;;;;;5045398;28;19988;-81
2022/01/15 16:51:05;;;;;;;;;;;;;;;;;;5052298;28;19928;-81
2022/01/15 16:53:32;;;;;;;;;;;;;;;;;;5048701;28;19929;-81
2022/01/15 16:55:59;;;;;;;;;;;;;;;;;;5056850;28;20356;-80
2022/01/15 16:58:26;;;;;;;;;;;;;;;;;;5057393;28;20027;-80
2022/01/15 17:00:55;;;;;;;;;;;;;;;;;;5053436;28;19925;-81
2022/01/15 17:03:22;;;;;;;;;;;;;;;;;;5058438;28;19925;-79
2022/01/15 17:05:49;;;;;;;;;;;;;;;;;;5056744;28;19929;-81
2022/01/15 17:08:16;;;;;;;;;;;;;;;;;;5054036;28;19939;-83
2022/01/15 17:10:43;;;;;;;;;;;;;;;;;;5055625;28;20024;-80